createdAt,value
2022-08-30T00:01:01.186Z,99261.28
2022-08-30T00:03:28.053Z,99274.97
2022-08-30T00:05:56.252Z,99270.78
2022-08-30T00:08:23.405Z,99273.47
2022-08-30T00:10:51.287Z,99275.72
2022-08-30T00:13:19.628Z,99284.28
2022-08-30T00:15:47.036Z,99270.47
2022-08-30T00:18:15.708Z,99286.41
2022-08-30T00:20:42.819Z,99294.41
2022-08-30T00:23:09.560Z,99285.69
2022-08-30T00:25:36.181Z,99273.13
2022-08-30T00:28:03.176Z,99288.69
2022-08-30T00:30:30.312Z,99288.09
2022-08-30T00:32:57.060Z,99287.44
2022-08-30T00:35:24.054Z,99276.53
2022-08-30T00:37:50.948Z,99291.22
2022-08-30T00:40:20.380Z,99286.34
2022-08-30T00:42:59.647Z,99283.97
2022-08-30T00:45:32.833Z,99300.06
2022-08-30T00:48:00.209Z,99294.75
2022-08-30T00:50:33.510Z,99288.44
2022-08-30T00:53:02.398Z,99307.09
2022-08-30T00:55:29.403Z,99307.22
2022-08-30T00:58:00.794Z,99310.19
2022-08-30T01:00:29.220Z,99318.44
2022-08-30T01:02:55.926Z,99295.94
2022-08-30T01:05:23.921Z,99314.97
2022-08-30T01:07:50.796Z,99318.19
2022-08-30T01:10:18.055Z,99314.69
2022-08-30T01:12:45.089Z,99318.06
2022-08-30T01:15:14.522Z,99326.44
2022-08-30T01:17:43.996Z,99319.47
2022-08-30T01:20:16.438Z,99323.25
2022-08-30T01:22:49.154Z,99330.94
2022-08-30T01:25:21.919Z,99320.03
2022-08-30T01:27:52.683Z,99329.09
2022-08-30T01:30:19.610Z,99321.97
2022-08-30T01:32:48.036Z,99315.25
2022-08-30T01:35:18.134Z,99323.50
2022-08-30T01:37:45.392Z,99323.63
2022-08-30T01:40:14.576Z,99320.41
2022-08-30T01:42:41.416Z,99317.91
2022-08-30T01:45:08.789Z,99318.31
2022-08-30T01:47:35.732Z,99330.34
2022-08-30T01:50:02.338Z,99320.28
2022-08-30T01:52:28.945Z,99324.19
2022-08-30T01:54:55.621Z,99335.78
2022-08-30T01:57:23.721Z,99319.66
2022-08-30T01:59:50.662Z,99343.88
2022-08-30T02:02:20.805Z,99350.06
2022-08-30T02:04:47.421Z,99320.59
2022-08-30T02:07:14.201Z,99355.50
2022-08-30T02:09:44.194Z,99345.84
2022-08-30T02:12:12.894Z,99345.97
2022-08-30T02:14:39.499Z,99351.66
2022-08-30T02:17:08.502Z,99354.63
2022-08-30T02:19:35.402Z,99359.81
2022-08-30T02:22:03.903Z,99361.72
2022-08-30T02:24:30.772Z,99365.88
2022-08-30T02:26:57.743Z,99373.72
2022-08-30T02:29:25.306Z,99376.09
2022-08-30T02:31:51.933Z,99377.31
2022-08-30T02:34:19.065Z,99384.38
2022-08-30T02:36:46.189Z,99401.34
2022-08-30T02:39:13.715Z,99396.13
2022-08-30T02:41:41.176Z,99407.28
2022-08-30T02:44:08.700Z,99398.66
2022-08-30T02:46:35.600Z,99403.97
2022-08-30T02:49:13.005Z,99421.19
2022-08-30T02:51:49.418Z,99428.13
2022-08-30T02:54:19.971Z,99429.63
2022-08-30T02:56:47.951Z,99437.97
2022-08-30T02:59:16.506Z,99431.63
2022-08-30T03:01:43.199Z,99417.41
2022-08-30T03:04:10.218Z,99444.78
2022-08-30T03:06:36.877Z,99436.59
2022-08-30T03:09:03.553Z,99425.31
2022-08-30T03:11:30.277Z,99461.22
2022-08-30T03:13:56.900Z,99439.03
2022-08-30T03:16:23.641Z,99459.38
2022-08-30T03:18:50.275Z,99449.28
2022-08-30T03:21:17.478Z,99467.94
2022-08-30T03:23:44.410Z,99473.00
2022-08-30T03:26:13.194Z,99460.16
2022-08-30T03:28:40.021Z,99455.09
2022-08-30T03:31:07.047Z,99452.97
2022-08-30T03:33:33.687Z,99460.78
2022-08-30T03:36:00.386Z,99467.31
2022-08-30T03:38:26.954Z,99469.50
2022-08-30T03:40:53.560Z,99481.78
2022-08-30T03:43:20.141Z,99469.00
2022-08-30T03:45:47.755Z,99499.53
2022-08-30T03:48:14.499Z,99501.91
2022-08-30T03:50:41.147Z,99494.06
2022-08-30T03:53:07.815Z,99496.16
2022-08-30T03:55:34.507Z,99512.78
2022-08-30T03:58:01.081Z,99494.47
2022-08-30T04:00:27.967Z,99508.97
2022-08-30T04:02:54.539Z,99511.34
2022-08-30T04:05:21.177Z,99520.06
2022-08-30T04:07:47.845Z,99525.25
2022-08-30T04:10:14.559Z,99522.09
2022-08-30T04:12:42.553Z,99532.47
2022-08-30T04:15:12.667Z,99513.06
2022-08-30T04:17:39.490Z,99492.56
2022-08-30T04:20:07.126Z,99523.31
2022-08-30T04:22:33.902Z,99536.34
2022-08-30T04:25:00.464Z,99530.06
2022-08-30T04:27:27.100Z,99516.06
2022-08-30T04:29:54.996Z,99531.22
2022-08-30T04:32:22.907Z,99532.72
2022-08-30T04:34:49.547Z,99521.19
2022-08-30T04:37:16.787Z,99495.63
2022-08-30T04:39:43.508Z,99508.72
2022-08-30T04:42:10.790Z,99487.34
2022-08-30T04:44:37.481Z,99467.81
2022-08-30T04:47:04.158Z,99473.19
2022-08-30T04:49:31.450Z,99462.00
2022-08-30T04:51:58.429Z,99447.81
2022-08-30T04:54:25.104Z,99434.94
2022-08-30T04:56:51.666Z,99438.88
2022-08-30T04:59:18.299Z,99446.88
2022-08-30T05:01:46.129Z,99415.16
2022-08-30T05:04:14.089Z,99430.31
2022-08-30T05:06:41.104Z,99417.44
2022-08-30T05:09:07.746Z,99410.88
2022-08-30T05:11:34.438Z,99405.25
2022-08-30T05:14:01.023Z,99411.66
2022-08-30T05:16:27.795Z,99398.38
2022-08-30T05:18:54.667Z,99376.50
2022-08-30T05:21:25.585Z,99360.44
2022-08-30T05:23:54.822Z,99374.88
2022-08-30T05:26:27.790Z,99368.16
2022-08-30T05:28:55.165Z,99351.78
2022-08-30T05:31:25.354Z,99377.13
2022-08-30T05:33:52.986Z,99357.66
2022-08-30T05:36:21.302Z,99371.94
2022-08-30T05:38:48.147Z,99373.63
2022-08-30T05:41:14.917Z,99368.03
2022-08-30T05:43:42.153Z,99359.81
2022-08-30T05:46:12.128Z,99369.75
2022-08-30T05:48:39.433Z,99368.19
2022-08-30T05:51:21.570Z,99378.03
2022-08-30T05:53:49.468Z,99371.13
2022-08-30T05:56:18.338Z,99375.50
2022-08-30T05:58:45.057Z,99367.88
2022-08-30T06:01:21.008Z,99373.53
2022-08-30T06:03:47.912Z,99366.38
2022-08-30T06:06:14.845Z,99351.59
2022-08-30T06:08:42.530Z,99370.06
2022-08-30T06:11:09.126Z,99356.03
2022-08-30T06:13:35.677Z,99345.91
2022-08-30T06:16:05.381Z,99338.09
2022-08-30T06:18:31.955Z,99329.09
2022-08-30T06:20:58.653Z,99361.06
2022-08-30T06:23:25.260Z,99343.88
2022-08-30T06:25:51.803Z,99373.97
2022-08-30T06:28:18.553Z,99365.09
2022-08-30T06:30:45.269Z,99366.91
2022-08-30T06:33:12.086Z,99358.00
2022-08-30T06:35:52.402Z,99370.31
2022-08-30T06:38:25.253Z,99365.69
2022-08-30T06:40:51.891Z,99367.53
2022-08-30T06:43:18.458Z,99355.22
2022-08-30T06:45:45.046Z,99367.31
2022-08-30T06:48:11.739Z,99363.34
2022-08-30T06:50:38.408Z,99367.56
2022-08-30T06:53:06.116Z,99364.50
2022-08-30T06:55:33.514Z,99381.78
2022-08-30T06:58:01.276Z,99367.19
2022-08-30T07:00:27.987Z,99362.69
2022-08-30T07:02:54.885Z,99378.19
2022-08-30T07:05:23.639Z,99373.47
2022-08-30T07:07:53.270Z,99374.50
2022-08-30T07:10:21.455Z,99381.09
2022-08-30T07:12:48.653Z,99384.28
2022-08-30T07:15:15.476Z,99381.25
2022-08-30T07:18:00.733Z,99372.53
2022-08-30T07:20:27.235Z,99390.84
2022-08-30T07:22:53.812Z,99388.16
2022-08-30T07:25:20.734Z,99394.34
2022-08-30T07:27:47.337Z,99361.63
2022-08-30T07:30:14.213Z,99393.13
2022-08-30T07:32:40.808Z,99369.94
2022-08-30T07:35:07.679Z,99397.94
2022-08-30T07:37:34.251Z,99401.59
2022-08-30T07:40:01.517Z,99398.69
2022-08-30T07:42:28.131Z,99397.16
2022-08-30T07:44:56.738Z,99398.63
2022-08-30T07:47:23.619Z,99403.66
2022-08-30T07:49:50.259Z,99398.91
2022-08-30T07:52:17.000Z,99393.34
2022-08-30T07:54:43.637Z,99389.28
2022-08-30T07:57:11.590Z,99391.41
2022-08-30T07:59:38.235Z,99381.34
2022-08-30T08:02:04.995Z,99401.78
2022-08-30T08:04:33.145Z,99397.38
2022-08-30T08:06:59.702Z,99404.06
2022-08-30T08:09:26.324Z,99401.84
2022-08-30T08:11:53.005Z,99401.91
2022-08-30T08:14:21.465Z,99388.91
2022-08-30T08:16:48.503Z,99391.72
2022-08-30T08:19:15.399Z,99399.22
2022-08-30T08:21:42.032Z,99383.56
2022-08-30T08:24:08.647Z,99406.88
2022-08-30T08:26:37.001Z,99403.94
2022-08-30T08:29:05.432Z,99396.72
2022-08-30T08:31:33.365Z,99387.38
2022-08-30T08:36:33.995Z,99409.69
2022-08-30T08:39:01.082Z,99388.31
2022-08-30T08:41:58.939Z,99408.03
2022-08-30T08:44:34.234Z,99406.34
2022-08-30T08:47:22.557Z,99409.72
2022-08-30T08:49:52.158Z,99400.19
2022-08-30T08:52:42.771Z,99391.91
2022-08-30T08:55:15.491Z,99401.25
2022-08-30T08:57:42.215Z,99405.56
2022-08-30T09:00:11.214Z,99394.16
2022-08-30T09:03:00.904Z,99387.38
2022-08-30T09:05:36.384Z,99397.31
2022-08-30T09:08:09.751Z,99393.88
2022-08-30T09:10:49.890Z,99374.81
2022-08-30T09:13:18.848Z,99391.19
2022-08-30T09:15:45.865Z,99405.41
2022-08-30T09:18:18.934Z,99400.25
2022-08-30T09:20:49.477Z,99382.25
2022-08-30T09:23:16.031Z,99408.69
2022-08-30T09:26:02.619Z,99398.44
2022-08-30T09:28:51.063Z,99400.78
2022-08-30T09:34:05.810Z,99394.75
2022-08-30T09:36:46.839Z,99373.53
2022-08-30T09:39:27.552Z,99401.34
2022-08-30T09:41:54.792Z,99399.81
2022-08-30T09:44:24.705Z,99396.84
2022-08-30T09:46:56.993Z,99397.91
2022-08-30T09:49:41.396Z,99376.00
2022-08-30T09:52:32.572Z,99387.56
2022-08-30T09:55:04.997Z,99388.00
2022-08-30T09:57:56.099Z,99389.66
2022-08-30T10:00:26.087Z,99394.78
2022-08-30T10:03:03.093Z,99396.28
2022-08-30T10:05:30.777Z,99392.47
2022-08-30T10:08:16.459Z,99393.50
2022-08-30T10:10:56.440Z,99399.97
2022-08-30T10:13:44.269Z,99397.47
2022-08-30T10:16:26.450Z,99389.28
2022-08-30T10:19:06.277Z,99375.16
2022-08-30T10:21:42.029Z,99397.44
2022-08-30T10:24:20.743Z,99388.81
2022-08-30T10:26:54.674Z,99377.03
2022-08-30T10:29:28.578Z,99388.97
2022-08-30T10:32:01.128Z,99393.03
2022-08-30T10:34:27.697Z,99399.03
2022-08-30T10:37:04.593Z,99390.22
2022-08-30T10:39:50.945Z,99378.69
2022-08-30T10:42:21.406Z,99391.03
2022-08-30T10:45:04.129Z,99376.16
2022-08-30T10:47:55.352Z,99388.72
2022-08-30T10:50:25.846Z,99379.66
2022-08-30T10:53:20.040Z,99371.78
2022-08-30T10:55:57.018Z,99360.41
2022-08-30T10:58:23.781Z,99352.38
2022-08-30T11:01:12.823Z,99373.81
2022-08-30T11:04:04.377Z,99374.78
2022-08-30T11:06:54.898Z,99376.78
2022-08-30T11:09:53.933Z,99372.06
2022-08-30T11:12:36.864Z,99362.56
2022-08-30T11:15:25.265Z,99366.09
2022-08-30T11:18:08.643Z,99362.09
2022-08-30T11:20:50.940Z,99363.94
2022-08-30T11:23:27.073Z,99364.09
2022-08-30T11:26:06.566Z,99354.31
2022-08-30T11:28:37.216Z,99355.06
2022-08-30T11:31:22.561Z,99363.72
2022-08-30T11:33:54.011Z,99326.88
2022-08-30T11:36:37.766Z,99354.50
2022-08-30T11:39:05.582Z,99345.41
2022-08-30T11:41:48.015Z,99340.75
2022-08-30T11:44:31.338Z,99340.22
2022-08-30T11:47:00.389Z,99348.13
2022-08-30T11:49:46.396Z,99352.50
2022-08-30T11:52:55.145Z,99343.25
2022-08-30T11:55:42.519Z,99347.53
2022-08-30T11:58:34.771Z,99347.03
2022-08-30T12:01:40.935Z,99338.00
2022-08-30T12:04:16.088Z,99335.16
2022-08-30T12:06:44.545Z,99334.31
2022-08-30T12:09:26.421Z,99331.22
2022-08-30T12:12:29.355Z,99327.38
2022-08-30T12:14:57.650Z,99317.66
2022-08-30T12:18:04.022Z,99333.03
2022-08-30T12:20:45.802Z,99322.13
2022-08-30T12:23:38.257Z,99326.41
2022-08-30T12:26:20.377Z,99325.09
2022-08-30T12:28:49.188Z,99311.63
2022-08-30T12:31:20.734Z,99316.03
2022-08-30T12:33:54.618Z,99317.69
2022-08-30T12:36:38.898Z,99307.34
2022-08-30T12:39:17.486Z,99317.22
2022-08-30T12:41:45.197Z,99285.84
2022-08-30T12:44:21.422Z,99311.56
2022-08-30T12:46:51.055Z,99318.31
2022-08-30T12:49:19.306Z,99314.03
2022-08-30T12:51:46.615Z,99309.06
2022-08-30T12:54:28.497Z,99306.03
2022-08-30T12:57:19.258Z,99311.00
2022-08-30T13:00:01.806Z,99313.84
2022-08-30T13:02:43.210Z,99276.50
2022-08-30T13:05:28.208Z,99307.44
2022-08-30T13:08:07.928Z,99314.16
2022-08-30T13:10:34.795Z,99300.75
2022-08-30T13:13:05.411Z,99289.25
2022-08-30T13:15:35.853Z,99289.16
2022-08-30T13:18:26.629Z,99296.16
2022-08-30T13:21:09.777Z,99288.66
2022-08-30T13:23:36.408Z,99276.44
2022-08-30T13:26:04.983Z,99281.06
2022-08-30T13:28:31.632Z,99280.09
2022-08-30T13:30:58.206Z,99281.47
2022-08-30T13:33:24.789Z,99277.22
2022-08-30T13:35:53.161Z,99283.97
2022-08-30T13:38:21.002Z,99272.72
2022-08-30T13:40:47.985Z,99267.34
2022-08-30T13:43:14.739Z,99248.91
2022-08-30T13:45:43.181Z,99263.44
2022-08-30T13:48:13.560Z,99277.81
2022-08-30T13:50:40.764Z,99259.34
2022-08-30T13:53:09.327Z,99260.81
2022-08-30T13:55:37.717Z,99257.56
2022-08-30T13:58:04.508Z,99278.97
2022-08-30T14:00:37.451Z,99269.72
2022-08-30T14:03:04.592Z,99256.50
2022-08-30T14:08:46.404Z,99266.03
2022-08-30T14:11:18.518Z,99250.88
2022-08-30T14:16:33.737Z,99251.91
2022-08-30T14:19:01.270Z,99248.34
2022-08-30T14:21:28.436Z,99257.38
2022-08-30T14:23:56.504Z,99263.28
2022-08-30T14:26:33.179Z,99249.94
2022-08-30T14:29:05.423Z,99248.53
2022-08-30T14:31:36.606Z,99260.06
2022-08-30T14:34:05.150Z,99259.59
2022-08-30T14:36:33.417Z,99252.47
2022-08-30T14:39:00.957Z,99234.09
2022-08-30T14:41:27.585Z,99230.13
2022-08-30T14:43:54.236Z,99236.38
2022-08-30T14:46:22.061Z,99238.75
2022-08-30T14:48:49.097Z,99223.41
2022-08-30T14:51:19.439Z,99225.78
2022-08-30T14:53:46.998Z,99236.66
2022-08-30T14:56:16.032Z,99231.53
2022-08-30T14:58:43.106Z,99231.28
2022-08-30T15:01:10.929Z,99227.41
2022-08-30T15:03:40.148Z,99226.44
2022-08-30T15:06:07.297Z,99218.56
2022-08-30T15:08:35.391Z,99214.84
2022-08-30T15:11:10.114Z,99218.47
2022-08-30T15:13:36.876Z,99225.78
2022-08-30T15:16:17.326Z,99203.06
2022-08-30T15:18:43.991Z,99221.44
2022-08-30T15:21:10.866Z,99214.25
2022-08-30T15:23:38.228Z,99219.56
2022-08-30T15:26:06.802Z,99209.53
2022-08-30T15:28:34.770Z,99221.25
2022-08-30T15:31:08.250Z,99220.53
2022-08-30T15:33:36.772Z,99211.88
2022-08-30T15:36:04.968Z,99211.06
2022-08-30T15:38:32.085Z,99208.59
2022-08-30T15:41:02.146Z,99215.84
2022-08-30T15:43:28.870Z,99205.56
2022-08-30T15:45:56.478Z,99211.84
2022-08-30T15:48:23.261Z,99202.31
2022-08-30T15:50:58.208Z,99197.88
2022-08-30T15:53:25.033Z,99198.63
2022-08-30T15:55:51.696Z,99204.44
2022-08-30T15:58:18.968Z,99191.63
2022-08-30T16:00:45.949Z,99201.03
2022-08-30T16:03:12.903Z,99193.59
2022-08-30T16:05:39.513Z,99198.00
2022-08-30T16:08:06.120Z,99203.78
2022-08-30T16:10:33.018Z,99200.72
2022-08-30T16:13:01.620Z,99187.91
2022-08-30T16:15:29.595Z,99204.81
2022-08-30T16:17:56.286Z,99198.53
2022-08-30T16:20:24.677Z,99189.25
2022-08-30T16:22:52.113Z,99208.50
2022-08-30T16:25:18.702Z,99215.09
2022-08-30T16:27:45.400Z,99208.47
2022-08-30T16:30:13.333Z,99215.09
2022-08-30T16:32:40.192Z,99214.09
2022-08-30T16:35:07.712Z,99224.66
2022-08-30T16:37:34.384Z,99222.97
2022-08-30T16:40:01.545Z,99225.81
2022-08-30T16:42:28.239Z,99222.50
2022-08-30T16:44:55.635Z,99223.47
2022-08-30T16:47:22.329Z,99236.53
2022-08-30T16:49:49.501Z,99239.38
2022-08-30T16:52:17.324Z,99238.00
2022-08-30T16:54:45.128Z,99227.63
2022-08-30T16:57:12.011Z,99231.28
2022-08-30T16:59:38.607Z,99247.31
2022-08-30T17:02:05.276Z,99250.63
2022-08-30T17:04:32.782Z,99249.47
2022-08-30T17:06:59.438Z,99264.84
2022-08-30T17:09:26.405Z,99265.66
2022-08-30T17:11:53.071Z,99270.81
2022-08-30T17:14:28.226Z,99272.13
2022-08-30T17:16:57.866Z,99270.97
2022-08-30T17:19:27.082Z,99286.63
2022-08-30T17:21:56.275Z,99277.75
2022-08-30T17:24:22.961Z,99285.56
2022-08-30T17:26:51.372Z,99285.56
2022-08-30T17:29:18.085Z,99283.53
2022-08-30T17:31:50.891Z,99286.81
2022-08-30T17:34:21.178Z,99300.66
2022-08-30T17:36:50.117Z,99305.50
2022-08-30T17:39:16.770Z,99305.88
2022-08-30T17:41:49.630Z,99307.28
2022-08-30T17:44:18.730Z,99315.84
2022-08-30T17:46:45.420Z,99316.69
2022-08-30T17:49:12.086Z,99322.66
2022-08-30T17:51:42.931Z,99313.41
2022-08-30T17:54:12.662Z,99307.53
2022-08-30T17:56:40.528Z,99320.03
2022-08-30T17:59:09.157Z,99301.38
2022-08-30T18:01:36.332Z,99330.34
2022-08-30T18:04:06.116Z,99320.31
2022-08-30T18:06:34.058Z,99335.72
2022-08-30T18:09:01.465Z,99325.72
2022-08-30T18:11:28.331Z,99328.59
2022-08-30T18:13:55.055Z,99341.28
2022-08-30T18:16:26.436Z,99333.81
2022-08-30T18:18:57.251Z,99313.84
2022-08-30T18:21:25.370Z,99314.81
2022-08-30T18:23:52.649Z,99336.72
2022-08-30T18:26:24.279Z,99337.19
2022-08-30T18:28:51.473Z,99327.25
2022-08-30T18:31:18.107Z,99332.75
2022-08-30T18:33:45.278Z,99340.75
2022-08-30T18:36:12.088Z,99323.50
2022-08-30T18:38:39.902Z,99331.50
2022-08-30T18:41:13.782Z,99330.47
2022-08-30T18:43:41.114Z,99328.47
2022-08-30T18:46:10.338Z,99337.88
2022-08-30T18:48:39.188Z,99329.94
2022-08-30T18:51:14.446Z,99335.56
2022-08-30T18:53:41.857Z,99326.44
2022-08-30T18:56:09.182Z,99315.63
2022-08-30T18:58:36.074Z,99342.88
2022-08-30T19:01:03.525Z,99320.06
2022-08-30T19:03:33.714Z,99335.00
2022-08-30T19:06:05.200Z,99339.38
2022-08-30T19:08:32.257Z,99344.16
2022-08-30T19:11:05.058Z,99336.03
2022-08-30T19:13:34.973Z,99338.44
2022-08-30T19:16:02.670Z,99340.00
2022-08-30T19:18:29.316Z,99317.50
2022-08-30T19:20:56.229Z,99339.06
2022-08-30T19:23:23.454Z,99340.19
2022-08-30T19:25:51.529Z,99344.59
2022-08-30T19:28:20.457Z,99338.00
2022-08-30T19:30:47.143Z,99336.19
2022-08-30T19:33:13.870Z,99336.34
2022-08-30T19:35:40.515Z,99329.50
2022-08-30T19:38:07.141Z,99345.00
2022-08-30T19:40:33.833Z,99343.22
2022-08-30T19:43:00.861Z,99343.50
2022-08-30T19:45:27.876Z,99344.34
2022-08-30T19:47:54.792Z,99334.84
2022-08-30T19:50:22.389Z,99324.06
2022-08-30T19:52:54.264Z,99342.72
2022-08-30T19:55:28.415Z,99343.50
2022-08-30T19:57:57.295Z,99351.06
2022-08-30T20:00:23.923Z,99349.69
2022-08-30T20:02:51.208Z,99356.53
2022-08-30T20:05:18.700Z,99327.41
2022-08-30T20:07:45.533Z,99326.44
2022-08-30T20:10:15.162Z,99328.13
2022-08-30T20:12:47.542Z,99347.16
2022-08-30T20:15:17.721Z,99339.75
2022-08-30T20:18:03.358Z,99342.16
2022-08-30T20:20:33.604Z,99325.59
2022-08-30T20:23:03.673Z,99318.47
2022-08-30T20:25:30.730Z,99340.72
2022-08-30T20:27:57.414Z,99331.63
2022-08-30T20:30:24.032Z,99344.50
2022-08-30T20:32:52.609Z,99347.31
2022-08-30T20:35:19.465Z,99342.66
2022-08-30T20:37:46.604Z,99346.03
2022-08-30T20:40:15.925Z,99344.63
2022-08-30T20:42:45.503Z,99355.13
2022-08-30T20:45:16.893Z,99357.19
2022-08-30T20:47:44.369Z,99361.69
2022-08-30T20:50:14.119Z,99353.03
2022-08-30T20:52:41.098Z,99349.94
2022-08-30T20:55:09.139Z,99343.75
2022-08-30T20:57:35.740Z,99349.34
2022-08-30T21:00:06.089Z,99354.53
2022-08-30T21:02:34.320Z,99344.75
2022-08-30T21:05:00.977Z,99356.94
2022-08-30T21:07:27.678Z,99333.00
2022-08-30T21:09:54.563Z,99360.19
2022-08-30T21:12:21.182Z,99340.84
2022-08-30T21:14:47.755Z,99359.78
2022-08-30T21:17:14.296Z,99339.03
2022-08-30T21:19:43.944Z,99330.78
2022-08-30T21:22:11.316Z,99349.56
2022-08-30T21:24:38.415Z,99345.88
2022-08-30T21:27:06.300Z,99345.75
2022-08-30T21:29:33.207Z,99341.41
2022-08-30T21:31:59.892Z,99342.81
2022-08-30T21:34:26.511Z,99336.66
2022-08-30T21:36:53.482Z,99313.41
2022-08-30T21:39:23.465Z,99335.94
2022-08-30T21:41:54.407Z,99342.13
2022-08-30T21:44:23.869Z,99337.88
2022-08-30T21:46:52.849Z,99342.50
2022-08-30T21:49:21.761Z,99320.47
2022-08-30T21:51:49.969Z,99337.75
2022-08-30T21:54:18.218Z,99334.78
2022-08-30T21:56:47.629Z,99336.03
2022-08-30T21:59:14.607Z,99338.97
2022-08-30T22:01:41.587Z,99321.22
2022-08-30T22:04:10.151Z,99340.50
2022-08-30T22:06:38.665Z,99319.06
2022-08-30T22:09:08.687Z,99333.19
2022-08-30T22:11:35.969Z,99335.56
2022-08-30T22:14:04.237Z,99328.53
2022-08-30T22:16:31.081Z,99336.91
2022-08-30T22:18:58.231Z,99326.34
2022-08-30T22:21:27.898Z,99328.19
2022-08-30T22:23:55.529Z,99330.00
2022-08-30T22:26:23.858Z,99330.84
2022-08-30T22:28:51.624Z,99328.44
2022-08-30T22:31:19.808Z,99322.44
2022-08-30T22:33:47.897Z,99329.72
2022-08-30T22:36:19.390Z,99323.94
2022-08-30T22:38:46.115Z,99326.72
2022-08-30T22:41:17.508Z,99325.88
2022-08-30T22:43:44.362Z,99325.72
2022-08-30T22:46:14.221Z,99331.72
2022-08-30T22:48:44.019Z,99335.28
2022-08-30T22:51:11.035Z,99311.25
2022-08-30T22:53:37.862Z,99325.84
2022-08-30T22:56:11.734Z,99324.75
2022-08-30T22:58:38.637Z,99316.44
2022-08-30T23:01:05.716Z,99320.88
2022-08-30T23:03:33.745Z,99321.13
2022-08-30T23:06:00.391Z,99324.09
2022-08-30T23:08:27.070Z,99311.09
2022-08-30T23:10:53.710Z,99321.72
2022-08-30T23:13:20.409Z,99321.53
2022-08-30T23:15:47.026Z,99304.78
2022-08-30T23:18:13.605Z,99312.91
2022-08-30T23:20:40.207Z,99312.03
2022-08-30T23:23:06.733Z,99308.78
2022-08-30T23:25:52.487Z,99318.75
2022-08-30T23:28:39.429Z,99303.16
2022-08-30T23:31:34.270Z,99310.16
2022-08-30T23:34:19.993Z,99304.44
2022-08-30T23:37:05.466Z,99307.06
2022-08-30T23:39:50.711Z,99313.19
2022-08-30T23:42:36.219Z,99310.81
2022-08-30T23:45:21.390Z,99309.59
2022-08-30T23:48:06.306Z,99312.94
2022-08-30T23:50:51.737Z,99314.22
2022-08-30T23:53:36.870Z,99314.09
2022-08-30T23:56:22.287Z,99319.66
2022-08-30T23:59:07.158Z,99298.03
